createdAt,value
2019-06-07T00:00:38.846Z,63.55
2019-06-07T00:02:56.038Z,63.41
2019-06-07T00:05:27.284Z,62.81
2019-06-07T00:08:07.503Z,62.86
2019-06-07T00:10:36.433Z,62.48
2019-06-07T00:13:05.088Z,62.92
2019-06-07T00:15:36.252Z,63.57
2019-06-07T00:18:11.208Z,62.37
2019-06-07T00:20:41.643Z,61.95
2019-06-07T00:23:18.187Z,63.49
2019-06-07T00:25:45.806Z,64.06
2019-06-07T00:28:18.466Z,65.34
2019-06-07T00:30:51.890Z,65.48
2019-06-07T00:33:25.181Z,63.61
2019-06-07T00:35:56.538Z,64.10
2019-06-07T00:38:27.810Z,64.40
2019-06-07T00:40:58.996Z,64.92
2019-06-07T00:43:30.258Z,65.39
2019-06-07T00:46:01.412Z,64.82
2019-06-07T00:48:33.255Z,64.91
2019-06-07T00:51:04.607Z,65.20
2019-06-07T00:53:36.356Z,65.70
2019-06-07T00:56:07.682Z,65.16
2019-06-07T00:58:39.057Z,65.15
2019-06-07T01:01:10.436Z,64.61
2019-06-07T01:03:41.645Z,64.89
2019-06-07T01:06:12.698Z,65.88
2019-06-07T01:08:44.041Z,66.24
2019-06-07T01:11:15.925Z,66.02
2019-06-07T01:13:47.585Z,65.83
2019-06-07T01:16:21.588Z,65.56
2019-06-07T01:18:51.621Z,66.60
2019-06-07T01:21:24.905Z,67.15
2019-06-07T01:24:10.622Z,66.99
2019-06-07T01:26:30.256Z,67.72
2019-06-07T01:29:01.450Z,67.77
2019-06-07T01:31:32.796Z,66.71
2019-06-07T01:34:03.983Z,66.88
2019-06-07T01:36:35.208Z,67.62
2019-06-07T01:39:08.082Z,67.53
2019-06-07T01:41:39.227Z,67.63
2019-06-07T01:44:10.373Z,67.75
2019-06-07T01:46:41.640Z,67.24
2019-06-07T01:49:12.839Z,67.93
2019-06-07T01:51:43.980Z,67.96
2019-06-07T01:56:47.987Z,69.14
2019-06-07T01:59:21.941Z,69.28
2019-06-07T02:01:51.865Z,70.02
2019-06-07T02:04:25.186Z,70.05
2019-06-07T02:06:55.923Z,68.70
2019-06-07T02:09:30.125Z,70.42
2019-06-07T02:11:59.874Z,70.35
2019-06-07T02:14:33.610Z,70.27
2019-06-07T02:17:04.187Z,69.61
2019-06-07T02:19:35.436Z,70.04
2019-06-07T02:22:06.688Z,69.95
2019-06-07T02:24:37.836Z,69.84
2019-06-07T02:27:08.995Z,69.73
2019-06-07T02:29:40.331Z,70.39
2019-06-07T02:32:11.519Z,71.23
2019-06-07T02:34:42.621Z,71.48
2019-06-07T02:37:13.858Z,71.01
2019-06-07T02:39:44.998Z,70.60
2019-06-07T02:42:16.205Z,71.49
2019-06-07T02:44:47.456Z,71.30
2019-06-07T02:47:18.514Z,69.79
2019-06-07T02:49:49.826Z,68.60
2019-06-07T02:52:21.049Z,68.48
2019-06-07T02:54:53.437Z,68.59
2019-06-07T02:57:25.798Z,67.83
2019-06-07T03:00:16.607Z,66.16
2019-06-07T03:02:33.502Z,67.29
2019-06-07T03:05:03.534Z,66.80
2019-06-07T03:07:40.413Z,66.53
2019-06-07T03:10:11.835Z,67.09
2019-06-07T03:12:46.213Z,66.80
2019-06-07T03:15:32.643Z,65.79
2019-06-07T03:18:06.459Z,67.57
2019-06-07T03:20:39.775Z,66.87
2019-06-07T03:23:10.747Z,67.18
2019-06-07T03:25:43.727Z,66.82
2019-06-07T03:28:14.955Z,67.25
2019-06-07T03:31:01.070Z,67.48
2019-06-07T03:33:18.997Z,68.31
2019-06-07T03:35:50.151Z,67.55
2019-06-07T03:38:21.363Z,67.72
2019-06-07T03:40:52.569Z,67.28
2019-06-07T03:43:25.155Z,67.70
2019-06-07T03:45:56.370Z,66.24
2019-06-07T03:48:30.162Z,67.16
2019-06-07T03:51:04.731Z,67.03
2019-06-07T03:53:36.532Z,66.95
2019-06-07T03:56:07.364Z,67.28
2019-06-07T03:58:49.053Z,68.53
2019-06-07T04:01:11.311Z,68.30
2019-06-07T04:03:50.937Z,68.50
2019-06-07T04:06:15.382Z,67.71
2019-06-07T04:08:46.562Z,68.15
2019-06-07T04:11:17.692Z,68.14
2019-06-07T04:13:48.863Z,68.15
2019-06-07T04:16:20.067Z,67.75
2019-06-07T04:18:51.159Z,68.25
2019-06-07T04:21:22.371Z,67.65
2019-06-07T04:23:53.481Z,68.91
2019-06-07T04:26:24.795Z,69.33
2019-06-07T04:31:32.163Z,69.77
2019-06-07T04:34:02.860Z,69.64
2019-06-07T04:36:49.046Z,69.62
2019-06-07T04:39:08.888Z,69.34
2019-06-07T04:41:42.083Z,69.51
2019-06-07T04:44:14.701Z,68.84
2019-06-07T04:46:49.051Z,68.68
2019-06-07T04:49:24.075Z,69.02
2019-06-07T04:51:57.297Z,68.63
2019-06-07T04:54:31.047Z,69.08
2019-06-07T04:57:01.528Z,67.42
2019-06-07T05:00:04.187Z,67.21
2019-06-07T05:02:05.548Z,65.36
2019-06-07T05:04:55.844Z,62.59
2019-06-07T05:07:27.133Z,61.14
2019-06-07T05:09:58.481Z,64.27
2019-06-07T05:12:30.067Z,66.69
2019-06-07T05:15:01.296Z,66.68
2019-06-07T05:17:34.364Z,66.42
2019-06-07T05:20:06.567Z,65.58
2019-06-07T05:22:42.058Z,66.35
2019-06-07T05:25:10.777Z,66.31
2019-06-07T05:27:46.631Z,66.45
2019-06-07T05:30:59.505Z,66.87
2019-06-07T05:33:01.761Z,67.08
2019-06-07T05:35:35.669Z,62.20
2019-06-07T05:38:07.881Z,57.93
2019-06-07T05:40:46.105Z,54.49
2019-06-07T05:43:28.351Z,57.34
2019-06-07T05:45:59.428Z,58.99
2019-06-07T05:48:31.713Z,61.75
2019-06-07T05:51:03.082Z,62.14
2019-06-07T05:53:34.730Z,63.01
2019-06-07T05:56:06.174Z,65.79
2019-06-07T05:58:37.753Z,64.78
2019-06-07T06:03:43.972Z,66.88
2019-06-07T06:06:15.462Z,65.34
2019-06-07T06:08:47.960Z,64.16
2019-06-07T06:11:19.669Z,63.27
2019-06-07T06:14:07.728Z,64.33
2019-06-07T06:16:23.571Z,63.44
2019-06-07T06:18:54.734Z,63.08
2019-06-07T06:21:25.966Z,60.45
2019-06-07T06:23:58.493Z,52.58
2019-06-07T06:26:29.671Z,49.82
2019-06-07T06:29:00.882Z,48.78
2019-06-07T06:31:32.034Z,48.78
2019-06-07T06:34:03.203Z,48.92
2019-06-07T06:36:34.435Z,48.89
2019-06-07T06:39:08.114Z,46.40
2019-06-07T06:41:51.988Z,46.54
2019-06-07T06:44:12.306Z,47.46
2019-06-07T06:46:49.097Z,46.63
2019-06-07T06:49:16.530Z,46.20
2019-06-07T06:51:51.339Z,45.19
2019-06-07T06:54:39.425Z,44.79
2019-06-07T06:56:53.558Z,44.87
2019-06-07T06:59:38.720Z,43.33
2019-06-07T07:01:57.900Z,43.63
2019-06-07T07:04:29.337Z,43.53
2019-06-07T07:07:00.641Z,42.59
2019-06-07T07:09:32.159Z,41.85
2019-06-07T07:12:12.193Z,40.18
2019-06-07T07:14:36.323Z,37.74
2019-06-07T07:17:07.420Z,39.89
2019-06-07T07:19:38.614Z,40.72
2019-06-07T07:22:09.684Z,41.24
2019-06-07T07:24:41.895Z,40.15
2019-06-07T07:27:13.116Z,40.23
2019-06-07T07:29:47.387Z,41.23
2019-06-07T07:32:17.264Z,40.30
2019-06-07T07:34:51.484Z,38.31
2019-06-07T07:37:21.267Z,38.66
2019-06-07T07:39:57.022Z,40.13
2019-06-07T07:42:25.290Z,43.52
2019-06-07T07:44:56.863Z,47.67
2019-06-07T07:47:28.314Z,47.05
2019-06-07T07:49:59.481Z,47.33
2019-06-07T07:52:30.640Z,49.16
2019-06-07T07:55:01.876Z,49.14
2019-06-07T07:57:34.280Z,50.23
2019-06-07T08:00:48.504Z,49.22
2019-06-07T08:02:39.245Z,49.87
2019-06-07T08:05:23.464Z,49.34
2019-06-07T08:07:43.471Z,48.29
2019-06-07T08:10:15.307Z,49.99
2019-06-07T08:13:06.888Z,50.71
2019-06-07T08:15:19.978Z,51.59
2019-06-07T08:17:57.107Z,49.75
2019-06-07T08:20:24.274Z,51.05
2019-06-07T08:22:59.271Z,51.46
2019-06-07T08:25:28.685Z,51.67
2019-06-07T08:27:59.832Z,52.11
2019-06-07T08:30:50.737Z,50.13
2019-06-07T08:33:24.807Z,52.15
2019-06-07T08:36:05.692Z,51.17
2019-06-07T08:38:30.678Z,52.01
2019-06-07T08:40:42.785Z,51.12
2019-06-07T08:43:20.878Z,50.89
2019-06-07T08:45:46.975Z,51.97
2019-06-07T08:48:27.626Z,50.98
2019-06-07T08:50:54.207Z,50.34
2019-06-07T08:53:24.168Z,50.99
2019-06-07T08:56:04.440Z,50.62
2019-06-07T08:58:28.134Z,50.62
2019-06-07T09:01:05.843Z,51.86
2019-06-07T09:03:32.091Z,50.38
2019-06-07T09:06:16.133Z,50.23
2019-06-07T09:08:37.075Z,50.66
2019-06-07T09:11:11.098Z,50.60
2019-06-07T09:13:41.143Z,50.27
2019-06-07T09:16:12.311Z,49.98
2019-06-07T09:18:44.961Z,51.18
2019-06-07T09:21:16.414Z,51.84
2019-06-07T09:23:47.677Z,49.29
2019-06-07T09:26:19.208Z,50.77
2019-06-07T09:28:50.558Z,49.63
2019-06-07T09:31:21.722Z,49.47
2019-06-07T09:33:52.902Z,50.12
2019-06-07T09:36:24.131Z,51.88
2019-06-07T09:38:58.696Z,50.05
2019-06-07T09:41:46.723Z,51.14
2019-06-07T09:44:19.098Z,50.56
2019-06-07T09:46:34.314Z,50.95
2019-06-07T09:49:18.298Z,49.22
2019-06-07T09:51:38.841Z,50.66
2019-06-07T09:54:11.499Z,50.99
2019-06-07T09:56:42.959Z,50.93
2019-06-07T09:59:14.047Z,51.74
2019-06-07T10:01:45.222Z,50.93
2019-06-07T10:04:30.786Z,52.52
2019-06-07T10:06:51.140Z,50.81
2019-06-07T10:11:55.636Z,49.51
2019-06-07T10:14:26.829Z,48.39
2019-06-07T10:16:58.806Z,49.61
2019-06-07T10:19:30.397Z,50.64
2019-06-07T10:22:01.571Z,49.08
2019-06-07T10:24:32.720Z,49.59
2019-06-07T10:27:04.132Z,48.68
2019-06-07T10:29:35.267Z,49.67
2019-06-07T10:32:06.954Z,49.08
2019-06-07T10:34:38.277Z,49.15
2019-06-07T10:37:11.964Z,50.30
2019-06-07T10:39:48.646Z,50.25
2019-06-07T10:42:15.559Z,50.14
2019-06-07T10:44:46.733Z,47.77
2019-06-07T10:47:18.060Z,48.65
2019-06-07T10:49:49.230Z,48.41
2019-06-07T10:52:20.475Z,49.28
2019-06-07T10:54:51.640Z,50.36
2019-06-07T10:57:22.871Z,48.19
2019-06-07T10:59:54.157Z,48.87
2019-06-07T11:02:25.400Z,48.12
2019-06-07T11:04:56.753Z,47.36
2019-06-07T11:07:28.047Z,47.75
2019-06-07T11:10:07.367Z,49.06
2019-06-07T11:12:32.210Z,49.66
2019-06-07T11:15:04.582Z,49.17
2019-06-07T11:17:37.030Z,47.59
2019-06-07T11:20:10.362Z,45.79
2019-06-07T11:22:41.669Z,46.11
2019-06-07T11:25:14.906Z,46.88
2019-06-07T11:28:06.319Z,46.60
2019-06-07T11:30:37.652Z,47.57
2019-06-07T11:33:08.706Z,47.25
2019-06-07T11:35:39.808Z,46.58
2019-06-07T11:38:11.038Z,46.81
2019-06-07T11:40:42.114Z,47.05
2019-06-07T11:43:13.405Z,47.46
2019-06-07T11:45:44.540Z,47.75
2019-06-07T11:48:15.907Z,47.53
2019-06-07T11:50:47.067Z,46.98
2019-06-07T11:53:20.034Z,44.81
2019-06-07T11:55:51.273Z,45.77
2019-06-07T11:58:22.455Z,46.73
2019-06-07T12:00:54.575Z,47.04
2019-06-07T12:03:25.911Z,46.86
2019-06-07T12:05:57.283Z,46.87
2019-06-07T12:08:28.553Z,47.13
2019-06-07T12:10:59.824Z,46.80
2019-06-07T12:13:31.005Z,45.28
2019-06-07T12:16:02.328Z,45.47
2019-06-07T12:18:33.449Z,44.98
2019-06-07T12:21:04.724Z,44.91
2019-06-07T12:23:35.991Z,46.18
2019-06-07T12:26:07.264Z,43.93
2019-06-07T12:28:38.448Z,45.02
2019-06-07T12:31:10.809Z,45.44
2019-06-07T12:33:42.141Z,44.42
2019-06-07T12:36:13.596Z,42.47
2019-06-07T12:38:44.873Z,43.08
2019-06-07T12:41:16.207Z,43.45
2019-06-07T12:43:47.403Z,43.48
2019-06-07T12:46:23.031Z,43.91
2019-06-07T12:48:51.412Z,43.54
2019-06-07T12:51:23.490Z,43.89
2019-06-07T12:53:55.929Z,43.29
2019-06-07T12:56:27.383Z,43.75
2019-06-07T12:58:58.740Z,43.35
2019-06-07T13:01:29.799Z,44.07
2019-06-07T13:04:00.923Z,43.03
2019-06-07T13:06:32.010Z,44.08
2019-06-07T13:09:03.453Z,43.00
2019-06-07T13:11:35.153Z,44.49
2019-06-07T13:14:07.021Z,42.65
2019-06-07T13:16:38.206Z,43.66
2019-06-07T13:19:09.466Z,42.42
2019-06-07T13:21:40.663Z,43.30
2019-06-07T13:24:12.154Z,41.58
2019-06-07T13:26:43.333Z,42.12
2019-06-07T13:29:14.511Z,40.60
2019-06-07T13:31:45.763Z,41.93
2019-06-07T13:34:18.547Z,40.92
2019-06-07T13:36:49.879Z,42.16
2019-06-07T13:39:24.262Z,42.21
2019-06-07T13:41:53.788Z,41.48
2019-06-07T13:44:26.158Z,43.21
2019-06-07T13:46:57.289Z,42.66
2019-06-07T13:49:28.478Z,42.10
2019-06-07T13:51:59.717Z,43.00
2019-06-07T13:54:30.842Z,43.83
2019-06-07T13:57:03.240Z,42.52
2019-06-07T13:59:34.596Z,43.03
2019-06-07T14:02:05.753Z,43.55
2019-06-07T14:04:36.948Z,42.77
2019-06-07T14:07:08.159Z,43.01
2019-06-07T14:09:39.317Z,43.91
2019-06-07T14:12:10.497Z,44.52
2019-06-07T14:14:41.789Z,42.40
2019-06-07T14:17:13.018Z,42.46
2019-06-07T14:19:44.263Z,42.12
2019-06-07T14:22:15.347Z,41.40
2019-06-07T14:24:46.444Z,41.33
2019-06-07T14:27:17.700Z,41.62
2019-06-07T14:29:48.797Z,42.77
2019-06-07T14:32:19.953Z,41.68
2019-06-07T14:34:51.055Z,43.45
2019-06-07T14:37:22.781Z,43.10
2019-06-07T14:39:54.106Z,41.90
2019-06-07T14:42:25.428Z,41.54
2019-06-07T14:44:56.542Z,42.66
2019-06-07T14:47:27.980Z,41.76
2019-06-07T14:49:59.389Z,43.02
2019-06-07T14:52:30.841Z,43.18
2019-06-07T14:55:02.187Z,43.10
2019-06-07T14:57:33.824Z,41.45
2019-06-07T15:00:11.510Z,42.13
2019-06-07T15:02:40.180Z,41.93
2019-06-07T15:05:13.136Z,42.28
2019-06-07T15:07:44.296Z,41.87
2019-06-07T15:10:15.901Z,42.21
2019-06-07T15:12:47.188Z,44.81
2019-06-07T15:15:18.400Z,43.30
2019-06-07T15:17:49.595Z,41.07
2019-06-07T15:20:20.971Z,41.54
2019-06-07T15:22:52.093Z,42.01
2019-06-07T15:25:23.247Z,41.15
2019-06-07T15:27:54.533Z,42.79
2019-06-07T15:30:27.336Z,44.11
2019-06-07T15:32:59.778Z,41.52
2019-06-07T15:35:32.146Z,41.29
2019-06-07T15:38:03.768Z,41.42
2019-06-07T15:40:35.321Z,41.03
2019-06-07T15:43:06.613Z,41.25
2019-06-07T15:45:37.892Z,41.32
2019-06-07T15:48:09.171Z,40.95
2019-06-07T15:50:40.554Z,42.44
2019-06-07T15:53:11.773Z,43.39
2019-06-07T15:55:45.607Z,43.40
2019-06-07T15:58:15.723Z,43.35
2019-06-07T16:00:49.973Z,42.86
2019-06-07T16:03:19.863Z,43.39
2019-06-07T16:05:50.944Z,43.11
2019-06-07T16:08:22.358Z,43.58
2019-06-07T16:10:53.503Z,44.17
2019-06-07T16:13:24.684Z,43.90
2019-06-07T16:15:55.867Z,43.99
2019-06-07T16:18:27.162Z,44.24
2019-06-07T16:20:58.238Z,44.43
2019-06-07T16:23:29.414Z,44.90
2019-06-07T16:26:00.744Z,45.16
2019-06-07T16:28:31.978Z,45.02
2019-06-07T16:31:03.131Z,44.59
2019-06-07T16:33:34.704Z,45.88
2019-06-07T16:36:06.348Z,45.29
2019-06-07T16:38:38.044Z,44.56
2019-06-07T16:41:09.269Z,45.42
2019-06-07T16:43:40.586Z,45.59
2019-06-07T16:46:11.910Z,46.45
2019-06-07T16:48:43.063Z,46.29
2019-06-07T16:51:14.195Z,46.56
2019-06-07T16:53:45.290Z,45.36
2019-06-07T16:56:16.533Z,45.96
2019-06-07T16:58:48.717Z,47.40
2019-06-07T17:01:20.041Z,48.83
2019-06-07T17:03:51.370Z,48.10
2019-06-07T17:06:22.604Z,47.38
2019-06-07T17:08:53.802Z,47.83
2019-06-07T17:11:25.079Z,48.34
2019-06-07T17:13:56.242Z,47.35
2019-06-07T17:16:27.569Z,48.40
2019-06-07T17:18:58.863Z,49.08
2019-06-07T17:21:30.088Z,48.43
2019-06-07T17:24:01.381Z,48.12
2019-06-07T17:26:32.680Z,49.47
2019-06-07T17:29:03.987Z,49.89
2019-06-07T17:31:35.137Z,48.89
2019-06-07T17:34:07.408Z,48.43
2019-06-07T17:36:38.652Z,48.28
2019-06-07T17:39:10.030Z,49.59
2019-06-07T17:41:51.523Z,49.93
2019-06-07T17:44:15.506Z,49.32
2019-06-07T17:46:47.789Z,49.48
2019-06-07T17:49:18.854Z,49.99
2019-06-07T17:51:50.165Z,49.08
2019-06-07T17:54:21.555Z,49.80
2019-06-07T17:56:53.145Z,49.95
2019-06-07T17:59:25.409Z,49.47
2019-06-07T18:02:13.602Z,50.66
2019-06-07T18:04:29.500Z,50.41
2019-06-07T18:07:01.418Z,51.25
2019-06-07T18:09:33.279Z,52.39
2019-06-07T18:12:04.515Z,52.81
2019-06-07T18:14:35.780Z,53.14
2019-06-07T18:17:06.956Z,53.38
2019-06-07T18:19:38.187Z,53.52
2019-06-07T18:22:09.324Z,53.04
2019-06-07T18:24:40.550Z,52.67
2019-06-07T18:27:11.735Z,52.43
2019-06-07T18:29:42.860Z,51.78
2019-06-07T18:32:13.940Z,52.64
2019-06-07T18:34:45.083Z,53.13
2019-06-07T18:37:16.317Z,52.86
2019-06-07T18:39:47.469Z,53.05
2019-06-07T18:42:18.852Z,53.75
2019-06-07T18:44:50.989Z,55.22
2019-06-07T18:47:22.092Z,56.41
2019-06-07T18:49:53.568Z,57.41
2019-06-07T18:52:30.872Z,58.26
2019-06-07T18:55:03.255Z,57.91
2019-06-07T18:57:34.453Z,58.14
2019-06-07T19:00:08.002Z,58.03
2019-06-07T19:02:39.234Z,58.71
2019-06-07T19:05:11.427Z,57.79
2019-06-07T19:07:42.665Z,57.90
2019-06-07T19:10:14.791Z,57.81
2019-06-07T19:12:46.354Z,58.02
2019-06-07T19:15:21.092Z,57.89
2019-06-07T19:17:53.895Z,58.30
2019-06-07T19:20:25.548Z,58.27
2019-06-07T19:22:56.711Z,59.83
2019-06-07T19:25:27.936Z,60.65
2019-06-07T19:27:59.355Z,61.26
2019-06-07T19:30:30.635Z,60.55
2019-06-07T19:33:01.872Z,59.03
2019-06-07T19:35:33.367Z,59.21
2019-06-07T19:38:04.919Z,59.91
2019-06-07T19:40:36.055Z,59.17
2019-06-07T19:43:07.294Z,59.96
2019-06-07T19:45:38.532Z,58.81
2019-06-07T19:48:10.050Z,57.95
2019-06-07T19:50:41.386Z,58.46
2019-06-07T19:53:13.890Z,58.67
2019-06-07T19:55:45.143Z,59.02
2019-06-07T19:58:16.262Z,58.49
2019-06-07T20:00:47.770Z,58.40
2019-06-07T20:03:19.098Z,58.00
2019-06-07T20:05:50.616Z,58.04
2019-06-07T20:08:21.730Z,58.67
2019-06-07T20:10:52.908Z,58.98
2019-06-07T20:13:24.289Z,59.52
2019-06-07T20:15:56.769Z,59.05
2019-06-07T20:18:29.299Z,59.58
2019-06-07T20:21:00.748Z,57.95
2019-06-07T20:23:32.089Z,58.45
2019-06-07T20:26:03.183Z,58.28
2019-06-07T20:28:34.445Z,58.43
2019-06-07T20:31:06.117Z,57.94
2019-06-07T20:33:37.480Z,56.53
2019-06-07T20:36:09.096Z,54.90
2019-06-07T20:38:40.470Z,53.79
2019-06-07T20:41:11.648Z,52.12
2019-06-07T20:43:42.924Z,52.24
2019-06-07T20:46:14.086Z,51.10
2019-06-07T20:48:45.183Z,49.51
2019-06-07T20:51:16.306Z,49.87
2019-06-07T20:53:47.463Z,48.94
2019-06-07T20:56:18.622Z,48.94
2019-06-07T20:58:49.927Z,47.77
2019-06-07T21:01:21.168Z,47.48
2019-06-07T21:03:52.387Z,47.69
2019-06-07T21:06:23.518Z,47.74
2019-06-07T21:08:54.725Z,49.43
2019-06-07T21:11:25.956Z,51.42
2019-06-07T21:13:57.245Z,52.41
2019-06-07T21:16:28.473Z,52.85
2019-06-07T21:19:00.095Z,53.29
2019-06-07T21:21:31.494Z,55.88
2019-06-07T21:24:02.623Z,55.86
2019-06-07T21:26:33.825Z,55.57
2019-06-07T21:29:05.259Z,56.05
2019-06-07T21:31:36.556Z,55.93
2019-06-07T21:34:11.034Z,55.95
2019-06-07T21:36:40.705Z,55.66
2019-06-07T21:39:12.398Z,55.16
2019-06-07T21:41:43.799Z,54.49
2019-06-07T21:44:15.069Z,54.26
2019-06-07T21:46:46.267Z,54.10
2019-06-07T21:49:17.373Z,52.62
2019-06-07T21:51:48.468Z,51.64
2019-06-07T21:54:19.702Z,52.52
2019-06-07T21:56:50.859Z,52.11
2019-06-07T21:59:22.062Z,52.22
2019-06-07T22:01:53.329Z,51.23
2019-06-07T22:04:24.554Z,51.74
2019-06-07T22:06:55.628Z,52.63
2019-06-07T22:09:26.805Z,52.35
2019-06-07T22:11:58.104Z,51.97
2019-06-07T22:14:29.294Z,51.88
2019-06-07T22:17:00.492Z,52.30
2019-06-07T22:19:31.720Z,51.09
2019-06-07T22:22:03.757Z,51.70
2019-06-07T22:24:35.898Z,51.86
2019-06-07T22:27:07.210Z,51.39
2019-06-07T22:29:38.477Z,50.55
2019-06-07T22:32:10.913Z,50.67
2019-06-07T22:34:42.213Z,50.20
2019-06-07T22:37:15.874Z,49.48
2019-06-07T22:39:46.085Z,49.46
2019-06-07T22:42:17.316Z,49.96
2019-06-07T22:44:48.497Z,49.66
2019-06-07T22:47:19.634Z,49.32
2019-06-07T22:49:50.746Z,48.88
2019-06-07T22:52:22.780Z,48.51
2019-06-07T22:54:54.185Z,47.66
2019-06-07T22:57:28.051Z,48.73
2019-06-07T22:59:59.247Z,48.25
2019-06-07T23:02:30.385Z,48.80
2019-06-07T23:05:04.710Z,47.82
2019-06-07T23:07:34.691Z,48.43
2019-06-07T23:10:06.291Z,48.38
2019-06-07T23:12:37.467Z,47.50
2019-06-07T23:15:09.382Z,47.26
2019-06-07T23:17:40.666Z,47.75
2019-06-07T23:20:13.709Z,48.61
2019-06-07T23:22:46.089Z,47.70
2019-06-07T23:25:20.880Z,48.03
2019-06-07T23:27:50.227Z,48.06
2019-06-07T23:30:21.886Z,48.44
2019-06-07T23:32:53.071Z,48.66
2019-06-07T23:35:24.347Z,48.82
2019-06-07T23:37:55.620Z,48.88
2019-06-07T23:40:26.802Z,48.13
2019-06-07T23:42:57.951Z,48.68
2019-06-07T23:45:29.042Z,48.63
2019-06-07T23:48:00.570Z,49.16
2019-06-07T23:50:31.786Z,49.49
2019-06-07T23:53:03.040Z,49.50
2019-06-07T23:55:34.314Z,49.28
2019-06-07T23:58:05.459Z,49.05
